createdAt,value
2022-11-14T00:01:13.334Z,87.99
2022-11-14T00:04:00.258Z,87.82
2022-11-14T00:06:47.069Z,87.70
2022-11-14T00:09:33.878Z,87.85
2022-11-14T00:12:20.880Z,88.35
2022-11-14T00:15:09.317Z,88.64
2022-11-14T00:17:56.089Z,88.72
2022-11-14T00:20:43.065Z,88.88
2022-11-14T00:23:30.491Z,88.99
2022-11-14T00:26:17.140Z,88.40
2022-11-14T00:29:05.341Z,88.39
2022-11-14T00:31:52.355Z,87.84
2022-11-14T00:34:39.113Z,88.29
2022-11-14T00:37:27.212Z,88.59
2022-11-14T00:40:15.027Z,89.16
2022-11-14T00:43:01.968Z,89.63
2022-11-14T00:45:48.912Z,90.77
2022-11-14T00:48:36.070Z,91.13
2022-11-14T00:51:23.209Z,91.88
2022-11-14T00:54:10.524Z,91.72
2022-11-14T00:56:57.319Z,91.68
2022-11-14T00:59:43.868Z,91.29
2022-11-14T01:02:30.584Z,91.44
2022-11-14T01:05:17.292Z,91.26
2022-11-14T01:08:04.371Z,91.08
2022-11-14T01:10:51.814Z,90.60
2022-11-14T01:13:39.165Z,90.59
2022-11-14T01:16:25.784Z,90.56
2022-11-14T01:19:12.932Z,90.25
2022-11-14T01:22:03.118Z,90.14
2022-11-14T01:24:53.215Z,89.85
2022-11-14T01:27:39.915Z,89.03
2022-11-14T01:30:26.841Z,89.84
2022-11-14T01:33:13.631Z,89.94
2022-11-14T01:36:00.525Z,90.13
2022-11-14T01:38:51.745Z,90.14
2022-11-14T01:41:38.694Z,89.97
2022-11-14T01:44:50.900Z,89.91
2022-11-14T01:47:38.051Z,89.73
2022-11-14T01:50:24.803Z,89.54
2022-11-14T01:53:11.627Z,89.28
2022-11-14T01:56:04.706Z,89.05
2022-11-14T01:59:07.672Z,89.01
2022-11-14T02:01:57.813Z,89.53
2022-11-14T02:04:52.496Z,89.65
2022-11-14T02:07:41.668Z,89.96
2022-11-14T02:10:28.641Z,90.22
2022-11-14T02:13:15.443Z,90.29
2022-11-14T02:16:02.370Z,90.37
2022-11-14T02:18:49.079Z,90.22
2022-11-14T02:21:35.874Z,90.31
2022-11-14T02:24:22.700Z,89.83
2022-11-14T02:27:11.048Z,88.95
2022-11-14T02:30:12.499Z,88.42
2022-11-14T02:33:15.016Z,88.14
2022-11-14T02:36:02.300Z,88.92
2022-11-14T02:38:49.078Z,89.42
2022-11-14T02:41:35.702Z,89.78
2022-11-14T02:44:22.635Z,89.70
2022-11-14T02:47:09.439Z,89.93
2022-11-14T02:49:56.236Z,89.70
2022-11-14T02:52:43.266Z,89.78
2022-11-14T02:55:29.856Z,89.53
2022-11-14T02:58:17.094Z,89.55
2022-11-14T03:01:20.169Z,89.39
2022-11-14T03:04:08.603Z,89.14
2022-11-14T03:06:55.629Z,89.10
2022-11-14T03:09:42.763Z,89.32
2022-11-14T03:12:30.791Z,89.74
2022-11-14T03:15:17.799Z,89.91
2022-11-14T03:18:04.622Z,89.75
2022-11-14T03:20:51.239Z,89.68
2022-11-14T03:23:38.454Z,89.29
2022-11-14T03:26:25.678Z,89.25
2022-11-14T03:29:12.693Z,89.11
2022-11-14T03:31:59.473Z,89.47
2022-11-14T03:34:46.292Z,88.79
2022-11-14T03:37:33.000Z,89.10
2022-11-14T03:40:20.138Z,89.32
2022-11-14T03:43:08.029Z,89.80
2022-11-14T03:45:58.598Z,89.47
2022-11-14T03:48:45.565Z,89.77
2022-11-14T03:51:32.484Z,89.44
2022-11-14T03:54:19.184Z,89.11
2022-11-14T03:57:06.005Z,89.14
2022-11-14T03:59:53.546Z,89.51
2022-11-14T04:02:40.356Z,89.34
2022-11-14T04:05:28.236Z,88.97
2022-11-14T04:08:15.266Z,89.06
2022-11-14T04:11:02.018Z,88.78
2022-11-14T04:13:48.814Z,88.79
2022-11-14T04:16:35.741Z,88.69
2022-11-14T04:19:22.435Z,88.57
2022-11-14T04:22:09.261Z,88.92
2022-11-14T04:24:56.061Z,89.03
2022-11-14T04:27:44.467Z,88.80
2022-11-14T04:30:34.668Z,88.77
2022-11-14T04:33:22.125Z,89.21
2022-11-14T04:36:09.338Z,89.16
2022-11-14T04:38:56.757Z,89.00
2022-11-14T04:41:43.886Z,89.05
2022-11-14T04:44:30.888Z,88.68
2022-11-14T04:47:17.902Z,88.66
2022-11-14T04:50:05.296Z,88.21
2022-11-14T04:52:54.048Z,88.37
2022-11-14T04:55:41.019Z,88.34
2022-11-14T04:58:28.340Z,88.64
2022-11-14T05:01:17.225Z,88.83
2022-11-14T05:04:04.523Z,89.22
2022-11-14T05:06:51.405Z,89.23
2022-11-14T05:09:38.565Z,88.69
2022-11-14T05:12:25.183Z,88.51
2022-11-14T05:15:11.900Z,88.92
2022-11-14T05:17:59.055Z,88.94
2022-11-14T05:20:48.010Z,88.75
2022-11-14T05:23:35.172Z,88.56
2022-11-14T05:26:22.179Z,88.57
2022-11-14T05:29:08.992Z,88.18
2022-11-14T05:32:05.675Z,88.69
2022-11-14T05:34:52.783Z,89.28
2022-11-14T05:37:39.765Z,89.85
2022-11-14T05:40:26.445Z,89.73
2022-11-14T05:43:13.512Z,89.42
2022-11-14T05:46:06.491Z,89.32
2022-11-14T05:48:53.348Z,89.62
2022-11-14T05:51:39.980Z,89.32
2022-11-14T05:54:26.766Z,89.06
2022-11-14T05:57:13.354Z,88.20
2022-11-14T06:00:00.172Z,87.72
2022-11-14T06:02:47.592Z,87.63
2022-11-14T06:05:36.247Z,87.29
2022-11-14T06:08:23.196Z,87.12
2022-11-14T06:11:19.700Z,87.01
2022-11-14T06:14:10.466Z,87.04
2022-11-14T06:16:57.959Z,87.19
2022-11-14T06:19:45.071Z,87.08
2022-11-14T06:22:32.122Z,86.68
2022-11-14T06:25:23.802Z,86.84
2022-11-14T06:28:12.035Z,86.96
2022-11-14T06:31:07.069Z,87.03
2022-11-14T06:33:55.648Z,86.72
2022-11-14T06:36:48.596Z,87.07
2022-11-14T06:39:35.846Z,87.15
2022-11-14T06:42:23.126Z,87.10
2022-11-14T06:45:18.013Z,87.18
2022-11-14T06:48:16.308Z,87.00
2022-11-14T06:51:04.650Z,87.11
2022-11-14T06:53:51.327Z,87.14
2022-11-14T06:56:38.156Z,88.09
2022-11-14T06:59:24.656Z,87.88
2022-11-14T07:02:17.743Z,87.73
2022-11-14T07:05:09.019Z,87.77
2022-11-14T07:07:58.269Z,87.62
2022-11-14T07:10:45.456Z,86.91
2022-11-14T07:13:33.286Z,86.78
2022-11-14T07:16:21.377Z,86.69
2022-11-14T07:19:11.607Z,86.72
2022-11-14T07:22:14.707Z,86.59
2022-11-14T07:25:10.004Z,87.11
2022-11-14T07:27:58.690Z,87.40
2022-11-14T07:30:45.807Z,87.45
2022-11-14T07:33:32.875Z,87.63
2022-11-14T07:36:19.947Z,87.17
2022-11-14T07:39:06.591Z,87.59
2022-11-14T07:41:53.500Z,87.87
2022-11-14T07:44:40.209Z,88.41
2022-11-14T07:47:27.480Z,89.02
2022-11-14T07:50:20.406Z,89.05
2022-11-14T07:53:08.539Z,88.62
2022-11-14T07:55:56.908Z,88.80
2022-11-14T07:58:43.701Z,88.19
2022-11-14T08:01:30.273Z,87.92
2022-11-14T08:04:17.588Z,87.17
2022-11-14T08:07:05.801Z,86.70
2022-11-14T08:09:52.958Z,86.64
2022-11-14T08:12:42.785Z,86.43
2022-11-14T08:15:29.871Z,86.10
2022-11-14T08:18:18.074Z,85.54
2022-11-14T08:21:06.272Z,85.40
2022-11-14T08:23:52.921Z,85.20
2022-11-14T08:26:39.822Z,85.45
2022-11-14T08:29:26.795Z,85.10
2022-11-14T08:32:13.565Z,84.92
2022-11-14T08:35:02.575Z,85.58
2022-11-14T08:37:49.600Z,85.52
2022-11-14T08:40:37.598Z,85.84
2022-11-14T08:43:24.583Z,86.51
2022-11-14T08:46:11.253Z,85.46
2022-11-14T08:48:58.516Z,85.38
2022-11-14T08:51:45.564Z,85.36
2022-11-14T08:54:32.725Z,85.64
2022-11-14T08:57:21.708Z,86.31
2022-11-14T09:00:09.768Z,86.63
2022-11-14T09:02:56.444Z,86.54
2022-11-14T09:05:43.904Z,86.81
2022-11-14T09:08:31.586Z,86.73
2022-11-14T09:11:19.289Z,86.20
2022-11-14T09:14:07.097Z,84.49
2022-11-14T09:16:53.969Z,85.03
2022-11-14T09:19:41.298Z,84.73
2022-11-14T09:22:28.329Z,83.73
2022-11-14T09:25:14.849Z,83.48
2022-11-14T09:28:07.092Z,83.77
2022-11-14T09:31:01.806Z,84.42
2022-11-14T09:33:49.025Z,84.47
2022-11-14T09:36:38.397Z,83.99
2022-11-14T09:39:28.485Z,84.79
2022-11-14T09:42:52.350Z,83.45
2022-11-14T09:45:48.316Z,83.09
2022-11-14T09:48:35.261Z,82.57
2022-11-14T09:51:30.512Z,83.00
2022-11-14T09:54:27.180Z,82.25
2022-11-14T09:57:23.247Z,81.08
2022-11-14T10:00:20.210Z,80.03
2022-11-14T10:03:23.020Z,80.14
2022-11-14T10:06:38.355Z,80.75
2022-11-14T10:09:34.792Z,80.79
2022-11-14T10:12:36.051Z,80.32
2022-11-14T10:16:02.307Z,80.56
2022-11-14T10:19:15.416Z,79.53
2022-11-14T10:22:20.401Z,78.38
2022-11-14T10:25:25.497Z,76.52
2022-11-14T10:28:33.987Z,73.90
2022-11-14T10:31:42.343Z,74.53
2022-11-14T10:34:47.815Z,75.70
2022-11-14T10:37:56.132Z,76.60
2022-11-14T10:40:50.752Z,75.58
2022-11-14T10:43:46.981Z,74.05
2022-11-14T10:46:41.905Z,71.99
2022-11-14T10:49:36.346Z,72.75
2022-11-14T10:52:42.762Z,73.13
2022-11-14T10:55:57.433Z,73.79
2022-11-14T10:58:47.764Z,73.38
2022-11-14T11:01:56.978Z,74.40
2022-11-14T11:04:46.121Z,73.55
2022-11-14T11:08:10.296Z,74.81
2022-11-14T11:11:30.303Z,75.22
2022-11-14T11:14:19.753Z,74.68
2022-11-14T11:17:13.062Z,73.50
2022-11-14T11:20:41.205Z,73.78
2022-11-14T11:23:29.161Z,73.90
2022-11-14T11:26:32.108Z,74.24
2022-11-14T11:29:20.175Z,73.71
2022-11-14T11:32:09.107Z,73.78
2022-11-14T11:34:57.961Z,72.32
2022-11-14T11:37:55.508Z,73.62
2022-11-14T11:40:49.550Z,73.29
2022-11-14T11:43:55.527Z,72.85
2022-11-14T11:47:07.827Z,71.67
2022-11-14T11:49:59.933Z,71.60
2022-11-14T11:53:24.105Z,72.48
2022-11-14T11:56:21.868Z,72.78
2022-11-14T11:59:33.874Z,71.92
2022-11-14T12:02:27.430Z,71.66
2022-11-14T12:05:19.923Z,71.55
2022-11-14T12:08:29.007Z,72.45
2022-11-14T12:11:22.058Z,71.94
2022-11-14T12:14:47.784Z,71.41
2022-11-14T12:17:54.362Z,71.34
2022-11-14T12:20:53.441Z,70.97
2022-11-14T12:23:57.700Z,71.43
2022-11-14T12:27:21.250Z,70.17
2022-11-14T12:30:13.815Z,70.54
2022-11-14T12:33:30.712Z,70.08
2022-11-14T12:36:18.031Z,70.77
2022-11-14T12:39:05.141Z,71.58
2022-11-14T12:42:02.695Z,72.61
2022-11-14T12:44:49.722Z,71.71
2022-11-14T12:48:22.653Z,72.39
2022-11-14T12:51:25.135Z,72.42
2022-11-14T12:54:49.280Z,72.59
2022-11-14T12:57:50.047Z,72.45
2022-11-14T13:01:20.615Z,72.14
2022-11-14T13:04:20.415Z,72.27
2022-11-14T13:07:34.774Z,73.95
2022-11-14T13:10:38.940Z,73.43
2022-11-14T13:13:44.941Z,72.08
2022-11-14T13:16:51.863Z,73.09
2022-11-14T13:20:06.135Z,73.19
2022-11-14T13:22:53.927Z,73.99
2022-11-14T13:25:40.864Z,73.43
2022-11-14T13:28:48.160Z,73.31
2022-11-14T13:31:49.257Z,72.87
2022-11-14T13:35:05.909Z,73.36
2022-11-14T13:38:14.145Z,73.26
2022-11-14T13:41:47.620Z,72.45
2022-11-14T13:44:53.762Z,72.48
2022-11-14T13:48:10.850Z,72.53
2022-11-14T13:51:28.634Z,72.53
2022-11-14T13:54:17.974Z,72.73
2022-11-14T13:57:24.531Z,73.03
2022-11-14T14:00:20.329Z,73.00
2022-11-14T14:03:25.019Z,73.39
2022-11-14T14:06:50.190Z,73.84
2022-11-14T14:09:58.125Z,74.34
2022-11-14T14:13:04.968Z,74.39
2022-11-14T14:16:33.160Z,75.12
2022-11-14T14:20:18.715Z,74.47
2022-11-14T14:23:42.325Z,74.88
2022-11-14T14:26:41.382Z,74.82
2022-11-14T14:30:08.456Z,74.95
2022-11-14T14:33:13.301Z,75.21
2022-11-14T14:36:00.160Z,75.22
2022-11-14T14:38:48.032Z,75.13
2022-11-14T14:41:35.463Z,74.84
2022-11-14T14:44:28.616Z,75.27
2022-11-14T14:47:34.104Z,75.58
2022-11-14T14:50:28.891Z,75.71
2022-11-14T14:53:28.889Z,76.23
2022-11-14T14:56:22.797Z,76.91
2022-11-14T14:59:23.740Z,76.42
2022-11-14T15:02:19.757Z,76.49
2022-11-14T15:05:07.001Z,76.73
2022-11-14T15:07:58.906Z,77.02
2022-11-14T15:10:46.037Z,77.68
2022-11-14T15:13:34.672Z,77.69
2022-11-14T15:16:22.146Z,78.44
2022-11-14T15:19:15.760Z,78.42
2022-11-14T15:22:10.923Z,78.60
2022-11-14T15:25:14.884Z,78.49
2022-11-14T15:28:02.607Z,78.27
2022-11-14T15:31:03.055Z,78.73
2022-11-14T15:34:30.789Z,78.63
2022-11-14T15:37:17.537Z,78.57
2022-11-14T15:40:22.948Z,78.27
2022-11-14T15:43:44.488Z,78.46
2022-11-14T15:46:34.381Z,78.31
2022-11-14T15:49:25.170Z,78.38
2022-11-14T15:52:55.354Z,78.29
2022-11-14T15:55:42.148Z,78.30
2022-11-14T15:58:29.504Z,78.69
2022-11-14T16:01:24.010Z,78.58
2022-11-14T16:04:18.314Z,78.95
2022-11-14T16:07:06.184Z,79.00
2022-11-14T16:09:53.267Z,78.69
2022-11-14T16:12:40.417Z,78.67
2022-11-14T16:15:27.044Z,78.76
2022-11-14T16:18:13.804Z,78.20
2022-11-14T16:21:00.632Z,78.20
2022-11-14T16:23:50.250Z,78.42
2022-11-14T16:26:43.247Z,78.74
2022-11-14T16:29:34.680Z,79.12
2022-11-14T16:32:23.521Z,79.22
2022-11-14T16:35:23.704Z,79.00
2022-11-14T16:38:14.291Z,79.63
2022-11-14T16:41:01.452Z,79.62
2022-11-14T16:43:48.329Z,79.58
2022-11-14T16:46:35.546Z,79.95
2022-11-14T16:49:23.216Z,80.12
2022-11-14T16:52:11.133Z,80.25
2022-11-14T16:54:58.409Z,80.46
2022-11-14T16:57:45.252Z,80.41
2022-11-14T17:00:32.622Z,80.80
2022-11-14T17:03:19.604Z,80.69
2022-11-14T17:06:11.865Z,80.85
2022-11-14T17:09:00.298Z,80.50
2022-11-14T17:11:47.037Z,80.74
2022-11-14T17:14:34.062Z,80.71
2022-11-14T17:17:21.685Z,80.60
2022-11-14T17:20:10.977Z,80.48
2022-11-14T17:22:57.981Z,80.45
2022-11-14T17:25:45.004Z,80.09
2022-11-14T17:28:34.208Z,80.31
2022-11-14T17:31:21.418Z,80.89
2022-11-14T17:34:10.469Z,81.39
2022-11-14T17:36:57.132Z,81.26
2022-11-14T17:39:43.798Z,81.66
2022-11-14T17:42:34.943Z,82.55
2022-11-14T17:45:22.021Z,82.34
2022-11-14T17:48:08.748Z,82.48
2022-11-14T17:50:56.151Z,82.65
2022-11-14T17:53:43.619Z,82.28
2022-11-14T17:56:30.479Z,81.97
2022-11-14T17:59:17.284Z,82.18
2022-11-14T18:02:03.883Z,82.29
2022-11-14T18:04:50.478Z,82.66
2022-11-14T19:18:41.617Z,84.62
2022-11-14T19:21:29.259Z,84.05
2022-11-14T19:24:16.553Z,83.67
2022-11-14T19:27:03.711Z,83.47
2022-11-14T19:29:51.117Z,83.29
2022-11-14T19:32:37.683Z,83.36
2022-11-14T19:35:24.845Z,83.38
2022-11-14T19:38:11.680Z,83.33
2022-11-14T19:41:03.544Z,83.62
2022-11-14T19:43:51.334Z,83.90
2022-11-14T19:46:40.752Z,83.77
2022-11-14T19:49:31.693Z,83.68
2022-11-14T19:52:18.436Z,83.31
2022-11-14T19:55:05.741Z,83.56
2022-11-14T19:57:52.497Z,83.72
2022-11-14T20:00:39.363Z,83.79
2022-11-14T20:03:26.465Z,83.67
2022-11-14T20:06:26.481Z,83.57
2022-11-14T20:09:13.416Z,83.52
2022-11-14T20:12:00.090Z,83.74
2022-11-14T20:14:47.012Z,83.79
2022-11-14T20:17:34.151Z,83.58
2022-11-14T20:20:20.964Z,83.58
2022-11-14T20:23:09.163Z,83.61
2022-11-14T20:25:56.104Z,83.35
2022-11-14T20:28:45.577Z,83.34
2022-11-14T20:31:32.429Z,83.22
2022-11-14T20:34:19.314Z,83.00
2022-11-14T20:37:11.404Z,82.91
2022-11-14T20:39:59.386Z,82.53
2022-11-14T20:42:49.975Z,82.86
2022-11-14T20:45:36.995Z,83.35
2022-11-14T20:48:24.711Z,82.96
2022-11-14T20:51:15.286Z,83.12
2022-11-14T20:54:02.076Z,83.63
2022-11-14T20:56:48.955Z,83.19
2022-11-14T20:59:35.558Z,83.07
2022-11-14T21:02:22.628Z,82.98
2022-11-14T21:05:10.551Z,82.84
2022-11-14T21:07:57.628Z,82.45
2022-11-14T21:10:49.053Z,81.91
2022-11-14T21:13:56.549Z,81.13
2022-11-14T21:16:43.495Z,80.48
2022-11-14T21:19:31.586Z,80.07
2022-11-14T21:22:18.424Z,79.49
2022-11-14T21:25:06.533Z,79.76
2022-11-14T21:27:53.257Z,79.48
2022-11-14T21:30:40.067Z,79.42
2022-11-14T21:33:31.275Z,79.31
2022-11-14T21:36:43.736Z,79.52
2022-11-14T21:39:27.016Z,79.50
2022-11-14T21:42:18.250Z,79.05
2022-11-14T21:45:07.305Z,79.51
2022-11-14T21:47:53.981Z,79.25
2022-11-14T21:50:40.618Z,79.30
2022-11-14T21:53:28.998Z,79.45
2022-11-14T21:56:17.201Z,79.66
2022-11-14T21:59:13.553Z,79.58
2022-11-14T22:02:19.343Z,79.56
2022-11-14T22:05:07.376Z,79.90
2022-11-14T22:07:54.448Z,79.91
2022-11-14T22:10:41.164Z,80.12
2022-11-14T22:13:30.678Z,80.37
2022-11-14T22:16:19.718Z,80.63
2022-11-14T22:19:07.001Z,80.74
2022-11-14T22:21:54.442Z,80.74
2022-11-14T22:24:41.555Z,80.44
2022-11-14T22:27:29.059Z,80.52
2022-11-14T22:30:16.566Z,80.28
2022-11-14T22:33:03.527Z,79.96
2022-11-14T22:35:50.743Z,79.95
2022-11-14T22:38:38.759Z,79.88
2022-11-14T22:41:33.490Z,79.81
2022-11-14T22:44:20.793Z,79.85
2022-11-14T22:47:07.609Z,79.77
2022-11-14T22:49:54.277Z,80.15
2022-11-14T22:52:41.030Z,79.96
2022-11-14T22:55:27.744Z,80.27
2022-11-14T22:58:15.177Z,80.02
2022-11-14T23:01:09.841Z,80.03
2022-11-14T23:04:02.979Z,80.14
2022-11-14T23:06:50.244Z,80.21
2022-11-14T23:09:37.028Z,80.39
2022-11-14T23:12:23.821Z,80.49
2022-11-14T23:15:10.766Z,80.81
2022-11-14T23:18:01.099Z,80.90
2022-11-14T23:20:47.665Z,81.12
2022-11-14T23:23:34.441Z,81.03
2022-11-14T23:26:22.801Z,81.23
2022-11-14T23:29:14.151Z,81.06
2022-11-14T23:32:00.949Z,80.99
2022-11-14T23:34:47.652Z,80.86
2022-11-14T23:37:34.519Z,80.82
2022-11-14T23:40:21.264Z,80.59
2022-11-14T23:43:08.292Z,80.80
2022-11-14T23:45:55.496Z,80.54
2022-11-14T23:48:42.717Z,80.61
2022-11-14T23:51:29.984Z,80.80
2022-11-14T23:54:17.002Z,80.82
2022-11-14T23:57:04.711Z,80.55
2022-11-14T23:59:52.026Z,80.72
